Time;durP1;ratioP1;P1;durP2;ratioP2;P2;SDS_P1;SDS_P2;PMS_P1;PMS_P2;Temp;Humidity;BMP_temperature;BMP_pressure;BME280_temperature;BME280_humidity;BME280_pressure;Samples;Min_cycle;Max_cycle;Signal;HPM_P1;HPM_P2
2023/10/29 00:00:31;;;;;;;1.30;0.70;;;16.70;99.90;;;;;;4928335;28;20134;-18
2023/10/29 00:02:57;;;;;;;1.50;0.87;;;16.80;99.90;;;;;;4938526;28;20031;-18
2023/10/29 00:05:24;;;;;;;1.83;0.80;;;16.70;99.90;;;;;;4929863;28;20524;-19
2023/10/29 00:07:49;;;;;;;1.75;0.73;;;16.70;99.90;;;;;;4951328;28;20110;-18
2023/10/29 00:10:18;;;;;;;1.52;0.70;;;16.70;99.90;;;;;;4928430;28;20113;-19
2023/10/29 00:12:44;;;;;;;1.03;0.77;;;16.60;99.90;;;;;;4934512;28;20362;-18
2023/10/29 00:15:10;;;;;;;1.65;0.80;;;16.50;99.90;;;;;;4954582;28;20038;-19
2023/10/29 00:17:36;;;;;;;1.42;0.70;;;16.50;99.90;;;;;;4931791;28;20037;-19
2023/10/29 00:20:03;;;;;;;0.80;0.70;;;16.50;99.90;;;;;;4936976;28;20609;-18
2023/10/29 00:22:29;;;;;;;1.30;0.77;;;16.50;99.90;;;;;;4929098;28;20463;-19
2023/10/29 00:24:54;;;;;;;1.08;0.75;;;16.50;99.90;;;;;;4941391;28;20034;-18
2023/10/29 00:27:20;;;;;;;0.80;0.70;;;16.50;99.90;;;;;;4950568;28;20617;-18
2023/10/29 00:29:46;;;;;;;1.00;0.82;;;16.50;99.90;;;;;;4920091;28;20257;-19
2023/10/29 00:32:13;;;;;;;2.05;0.75;;;16.50;99.90;;;;;;4944466;28;20057;-19
2023/10/29 00:34:39;;;;;;;0.60;0.60;;;16.50;99.90;;;;;;4928630;28;20623;-19
2023/10/29 00:37:04;;;;;;;1.00;0.73;;;16.50;99.90;;;;;;4921074;28;20027;-20
2023/10/29 00:39:30;;;;;;;2.03;0.70;;;16.50;99.90;;;;;;4938853;28;20053;-20
2023/10/29 00:41:57;;;;;;;1.20;0.80;;;16.50;99.90;;;;;;4948890;28;20034;-20
2023/10/29 00:44:23;;;;;;;1.63;0.80;;;16.50;99.90;;;;;;4957416;28;20037;-20
2023/10/29 00:46:49;;;;;;;2.47;0.70;;;16.50;99.90;;;;;;4939792;28;20362;-21
2023/10/29 00:49:15;;;;;;;1.00;0.70;;;16.50;99.90;;;;;;4945611;28;21049;-20
2023/10/29 00:51:42;;;;;;;1.23;0.77;;;16.50;99.90;;;;;;4937394;28;20035;-20
2023/10/29 00:54:08;;;;;;;1.45;0.70;;;16.50;99.90;;;;;;4958468;28;20542;-21
2023/10/29 00:56:34;;;;;;;1.40;0.85;;;16.50;99.90;;;;;;4936838;28;20445;-20
2023/10/29 00:59:00;;;;;;;1.63;0.70;;;16.50;99.90;;;;;;4950528;28;20073;-19
2023/10/29 01:01:26;;;;;;;1.60;0.60;;;16.60;99.90;;;;;;4954946;28;20160;-18
2023/10/29 01:03:52;;;;;;;0.50;0.50;;;16.60;99.90;;;;;;4945149;28;20047;-20
2023/10/29 01:06:18;;;;;;;1.00;0.70;;;16.60;99.90;;;;;;4931496;28;20166;-18
2023/10/29 01:08:44;;;;;;;0.60;0.50;;;16.60;99.90;;;;;;4906617;28;20031;-19
2023/10/29 01:11:13;;;;;;;0.80;0.50;;;16.70;99.90;;;;;;4928912;28;20554;-18
2023/10/29 01:13:38;;;;;;;0.50;0.40;;;16.70;99.90;;;;;;4957079;28;20102;-18
2023/10/29 01:16:04;;;;;;;1.13;0.50;;;16.70;99.90;;;;;;4965289;28;20706;-19
2023/10/29 01:18:32;;;;;;;1.13;0.40;;;16.70;99.90;;;;;;4944110;28;20528;-19
2023/10/29 01:20:58;;;;;;;1.73;0.60;;;16.70;99.90;;;;;;4922189;28;20028;-20
2023/10/29 01:23:25;;;;;;;1.75;0.60;;;16.70;99.90;;;;;;4946502;28;20034;-18
2023/10/29 01:25:50;;;;;;;0.90;0.50;;;16.70;99.90;;;;;;4947107;28;20042;-19
2023/10/29 01:28:16;;;;;;;1.30;0.63;;;16.70;99.90;;;;;;4945309;28;20243;-19
2023/10/29 01:30:42;;;;;;;0.50;0.50;;;16.70;99.90;;;;;;4940553;28;20134;-19
2023/10/29 01:33:08;;;;;;;0.82;0.50;;;16.60;99.90;;;;;;4955274;28;20693;-18
2023/10/29 01:35:33;;;;;;;0.85;0.57;;;16.60;99.90;;;;;;4946345;28;20104;-18
2023/10/29 01:38:01;;;;;;;0.53;0.50;;;16.60;99.90;;;;;;4935819;28;20742;-20
2023/10/29 01:40:27;;;;;;;0.60;0.40;;;16.50;99.90;;;;;;4934490;28;20019;-19
2023/10/29 01:42:53;;;;;;;2.55;1.23;;;16.50;99.90;;;;;;4941223;28;20539;-20
2023/10/29 01:45:18;;;;;;;0.63;0.40;;;16.40;99.90;;;;;;4939712;28;20110;-19
2023/10/29 01:47:44;;;;;;;0.63;0.50;;;16.40;99.90;;;;;;4947268;28;20509;-20
2023/10/29 01:50:10;;;;;;;0.80;0.50;;;16.30;99.90;;;;;;4939601;28;20522;-18
2023/10/29 01:52:39;;;;;;;1.67;0.70;;;16.30;99.90;;;;;;4945123;28;20039;-19
2023/10/29 01:55:08;;;;;;;1.08;0.70;;;16.30;99.90;;;;;;4927559;28;20114;-18
2023/10/29 01:57:38;;;;;;;3.08;0.60;;;16.30;99.90;;;;;;4947740;28;20071;-19
2023/10/29 02:00:06;;;;;;;1.20;0.60;;;16.30;99.90;;;;;;4930530;28;20260;-18
2023/10/29 02:02:32;;;;;;;0.98;0.50;;;16.30;99.90;;;;;;4951102;28;20023;-20
2023/10/29 02:04:58;;;;;;;1.15;0.60;;;16.40;99.90;;;;;;4945045;28;20423;-18
2023/10/29 02:07:24;;;;;;;1.02;0.60;;;16.30;99.90;;;;;;4932459;28;20094;-20
2023/10/29 02:09:50;;;;;;;0.80;0.60;;;16.40;99.90;;;;;;4926137;28;20892;-21
2023/10/29 02:12:16;;;;;;;0.80;0.60;;;16.40;99.90;;;;;;4948393;28;20473;-21
2023/10/29 02:14:41;;;;;;;1.07;0.70;;;16.40;99.90;;;;;;4937831;28;20093;-22
2023/10/29 02:17:07;;;;;;;0.90;0.57;;;16.40;99.90;;;;;;4966644;28;20278;-21
2023/10/29 02:19:33;;;;;;;1.23;0.60;;;16.50;99.90;;;;;;4945039;28;20080;-20
2023/10/29 02:21:58;;;;;;;0.90;0.70;;;16.40;99.90;;;;;;4927845;28;21386;-20
2023/10/29 02:24:24;;;;;;;0.60;0.50;;;16.50;99.90;;;;;;4936211;28;20078;-19
2023/10/29 02:26:50;;;;;;;0.70;0.60;;;16.50;99.90;;;;;;4943085;28;20027;-20
2023/10/29 02:29:16;;;;;;;0.70;0.50;;;16.50;99.90;;;;;;4927844;28;20042;-22
2023/10/29 02:31:42;;;;;;;1.55;0.50;;;16.50;99.90;;;;;;4954040;28;20047;-22
2023/10/29 02:34:07;;;;;;;0.63;0.40;;;16.60;99.90;;;;;;4943646;28;20034;-22
2023/10/29 02:36:33;;;;;;;0.50;0.50;;;16.60;99.90;;;;;;4946771;28;20038;-22
2023/10/29 02:38:59;;;;;;;0.85;0.50;;;16.60;99.90;;;;;;4932072;28;20389;-22
2023/10/29 02:41:24;;;;;;;0.50;0.50;;;16.60;99.90;;;;;;4953266;28;20260;-23
2023/10/29 02:43:50;;;;;;;0.95;0.40;;;16.60;99.90;;;;;;4941298;28;20038;-23
2023/10/29 02:46:16;;;;;;;1.47;0.50;;;16.60;99.90;;;;;;4930904;28;20027;-22
2023/10/29 02:48:42;;;;;;;0.75;0.50;;;16.70;99.90;;;;;;4961628;28;20093;-22
2023/10/29 02:51:12;;;;;;;0.90;0.50;;;16.70;99.90;;;;;;4945622;28;20562;-22
2023/10/29 02:53:38;;;;;;;0.93;0.50;;;16.70;99.90;;;;;;4945594;28;20486;-22
2023/10/29 02:56:04;;;;;;;0.45;0.45;;;16.70;99.90;;;;;;4939872;28;20532;-23
2023/10/29 02:58:29;;;;;;;1.52;0.60;;;16.70;99.90;;;;;;4946294;28;20406;-23
2023/10/29 03:01:09;;;;;;;1.37;0.60;;;16.70;99.90;;;;;;4940014;28;20031;-23
2023/10/29 03:03:35;;;;;;;1.63;0.90;;;16.80;99.90;;;;;;4953012;28;20071;-23
2023/10/29 03:06:08;;;;;;;0.52;0.52;;;16.80;99.90;;;;;;4950053;28;22190;-23
2023/10/29 03:08:34;;;;;;;1.05;0.40;;;16.80;99.90;;;;;;4932259;28;20062;-23
2023/10/29 03:11:00;;;;;;;0.57;0.50;;;16.80;99.90;;;;;;4938979;28;20480;-24
2023/10/29 03:13:29;;;;;;;1.37;0.60;;;16.80;99.90;;;;;;4960408;28;20039;-24
2023/10/29 03:15:55;;;;;;;1.00;0.50;;;16.80;99.90;;;;;;4930014;28;20856;-23
2023/10/29 03:18:21;;;;;;;1.27;0.57;;;16.80;99.90;;;;;;4959153;28;20027;-23
2023/10/29 03:20:47;;;;;;;0.50;0.43;;;16.80;99.90;;;;;;4959712;28;20026;-23
2023/10/29 03:23:13;;;;;;;1.40;0.50;;;16.80;99.90;;;;;;4965629;28;20250;-24
2023/10/29 03:25:39;;;;;;;0.80;0.50;;;16.80;99.90;;;;;;4932363;28;20468;-24
2023/10/29 03:28:05;;;;;;;1.35;0.50;;;16.80;99.90;;;;;;4940789;28;20026;-24
2023/10/29 03:30:31;;;;;;;2.37;0.87;;;16.80;99.90;;;;;;4936888;28;20030;-21
2023/10/29 03:32:56;;;;;;;1.70;0.60;;;16.80;99.90;;;;;;4940284;28;20039;-21
2023/10/29 03:35:25;;;;;;;1.90;0.50;;;16.80;99.90;;;;;;4954165;28;20428;-21
2023/10/29 03:37:51;;;;;;;1.27;0.50;;;16.80;99.90;;;;;;4934764;28;20027;-22
2023/10/29 03:40:16;;;;;;;0.88;0.60;;;16.80;99.90;;;;;;4943663;28;20098;-22
2023/10/29 03:42:42;;;;;;;0.95;0.57;;;16.80;99.90;;;;;;4933596;28;20480;-22
2023/10/29 03:45:08;;;;;;;1.80;0.70;;;16.80;99.90;;;;;;4923981;28;20050;-22
2023/10/29 03:47:34;;;;;;;1.85;0.70;;;16.70;99.90;;;;;;4956543;28;20683;-22
2023/10/29 03:50:00;;;;;;;0.77;0.50;;;16.80;99.90;;;;;;4946915;28;20479;-23
2023/10/29 03:52:26;;;;;;;2.17;0.87;;;16.80;99.90;;;;;;4936193;28;21002;-22
2023/10/29 03:54:51;;;;;;;1.95;0.63;;;16.80;99.90;;;;;;4936248;28;20527;-22
2023/10/29 03:57:17;;;;;;;2.90;0.63;;;16.80;99.90;;;;;;4939119;28;20273;-23
2023/10/29 03:59:43;;;;;;;1.38;0.60;;;16.80;99.90;;;;;;4940760;28;20043;-21
2023/10/29 04:02:09;;;;;;;2.23;0.73;;;16.80;99.90;;;;;;4927590;28;20039;-21
2023/10/29 04:04:35;;;;;;;3.25;0.63;;;16.70;99.90;;;;;;4940633;28;20226;-19
2023/10/29 04:07:02;;;;;;;2.03;0.65;;;16.70;99.90;;;;;;4955780;28;20030;-20
2023/10/29 04:09:28;;;;;;;1.07;0.50;;;16.60;99.90;;;;;;4933570;28;20363;-22
2023/10/29 04:11:54;;;;;;;1.85;0.60;;;16.50;99.90;;;;;;4933252;28;20042;-23
2023/10/29 04:14:20;;;;;;;1.30;0.52;;;16.40;99.90;;;;;;4940784;28;20188;-23
2023/10/29 04:16:45;;;;;;;1.33;0.50;;;16.30;99.90;;;;;;4947057;28;20092;-24
2023/10/29 04:19:11;;;;;;;2.80;0.60;;;16.20;99.90;;;;;;4952190;28;20168;-22
2023/10/29 04:21:37;;;;;;;1.13;0.45;;;16.10;99.90;;;;;;4951877;28;20026;-22
2023/10/29 04:24:03;;;;;;;1.07;0.60;;;16.00;99.90;;;;;;4912518;28;20054;-22
2023/10/29 04:26:29;;;;;;;2.30;0.60;;;15.90;99.90;;;;;;4929015;28;20231;-22
2023/10/29 04:28:54;;;;;;;0.85;0.50;;;15.80;99.90;;;;;;4944686;28;20030;-22
2023/10/29 04:31:20;;;;;;;1.07;0.50;;;15.70;99.90;;;;;;4960010;28;20772;-22
2023/10/29 04:33:48;;;;;;;2.22;0.65;;;15.70;99.90;;;;;;4941862;28;20493;-22
2023/10/29 04:36:24;;;;;;;1.13;0.60;;;15.60;99.90;;;;;;4956693;28;20377;-22
2023/10/29 04:38:51;;;;;;;1.47;0.70;;;15.60;99.90;;;;;;4944562;28;20066;-22
2023/10/29 04:41:17;;;;;;;3.58;0.75;;;15.50;99.90;;;;;;4927731;28;20038;-20
2023/10/29 04:43:43;;;;;;;3.08;0.80;;;15.50;99.90;;;;;;4923303;28;20042;-19
2023/10/29 04:46:10;;;;;;;4.13;1.00;;;15.50;99.90;;;;;;4952021;28;20042;-20
2023/10/29 04:48:37;;;;;;;2.72;0.85;;;15.50;99.90;;;;;;4941705;28;20270;-19
2023/10/29 04:51:06;;;;;;;0.73;0.60;;;15.50;99.90;;;;;;4948717;28;20090;-22
2023/10/29 04:53:32;;;;;;;2.08;0.70;;;15.50;99.90;;;;;;4939063;28;20086;-22
2023/10/29 04:55:58;;;;;;;3.25;0.70;;;15.50;99.90;;;;;;4948357;28;20043;-22
2023/10/29 04:58:23;;;;;;;3.60;1.00;;;15.50;99.90;;;;;;4932282;28;20053;-22
2023/10/29 05:00:49;;;;;;;5.97;0.85;;;15.50;99.90;;;;;;4944435;28;20166;-22
2023/10/29 05:03:15;;;;;;;2.00;0.77;;;15.50;99.90;;;;;;4937663;28;20054;-22
2023/10/29 05:05:41;;;;;;;2.10;0.60;;;15.50;99.90;;;;;;4942881;28;20023;-22
2023/10/29 05:08:07;;;;;;;2.50;0.60;;;15.60;99.90;;;;;;4932611;28;20409;-22
2023/10/29 05:10:33;;;;;;;1.63;0.60;;;15.60;99.90;;;;;;4953466;28;20070;-23
2023/10/29 05:12:59;;;;;;;1.33;0.60;;;15.60;99.90;;;;;;4930177;28;20163;-22
2023/10/29 05:15:25;;;;;;;1.58;0.60;;;15.60;99.90;;;;;;4940631;28;20062;-22
2023/10/29 05:17:51;;;;;;;1.83;0.70;;;15.60;99.90;;;;;;4958462;28;20062;-23
2023/10/29 05:20:17;;;;;;;0.70;0.60;;;15.60;99.90;;;;;;4925954;28;20348;-19
2023/10/29 05:22:43;;;;;;;3.80;1.05;;;15.60;99.90;;;;;;4954229;28;20019;-19
2023/10/29 05:25:09;;;;;;;1.83;0.60;;;15.60;99.90;;;;;;4940531;28;20022;-21
2023/10/29 05:27:36;;;;;;;2.50;1.08;;;15.60;99.90;;;;;;4927454;28;20296;-20
2023/10/29 05:30:05;;;;;;;1.73;0.50;;;15.60;99.90;;;;;;4965733;28;20086;-21
2023/10/29 05:32:32;;;;;;;2.13;0.60;;;15.60;99.90;;;;;;4927812;28;20432;-19
2023/10/29 05:34:58;;;;;;;4.13;0.93;;;15.60;99.90;;;;;;4951916;28;20039;-20
2023/10/29 05:37:24;;;;;;;4.22;0.70;;;15.60;99.90;;;;;;4943190;28;20043;-20
2023/10/29 05:39:51;;;;;;;3.60;1.17;;;15.70;99.90;;;;;;4955863;28;20828;-20
2023/10/29 05:42:17;;;;;;;3.27;0.77;;;15.60;99.90;;;;;;4950088;28;20081;-20
2023/10/29 05:44:43;;;;;;;0.93;0.50;;;15.60;99.90;;;;;;4927562;28;20043;-21
2023/10/29 05:47:09;;;;;;;2.05;0.60;;;15.60;99.90;;;;;;4937787;28;20055;-21
2023/10/29 05:49:34;;;;;;;5.17;0.70;;;15.60;99.90;;;;;;4934667;28;20038;-22
2023/10/29 05:52:00;;;;;;;4.23;0.60;;;15.60;99.90;;;;;;4940421;28;20030;-21
2023/10/29 05:54:26;;;;;;;6.13;0.93;;;15.60;99.90;;;;;;4951953;28;20293;-22
2023/10/29 05:56:51;;;;;;;3.35;0.70;;;15.60;99.90;;;;;;4949107;28;20509;-22
2023/10/29 05:59:18;;;;;;;2.87;0.90;;;15.60;99.90;;;;;;4931345;28;20062;-22
2023/10/29 06:01:44;;;;;;;2.58;0.70;;;15.60;99.90;;;;;;4947050;28;20027;-23
2023/10/29 06:04:10;;;;;;;5.70;0.93;;;15.60;99.90;;;;;;4941312;28;20515;-21
2023/10/29 06:06:36;;;;;;;2.23;0.60;;;15.60;99.90;;;;;;4946355;28;20077;-22
2023/10/29 06:09:03;;;;;;;2.40;0.70;;;15.60;99.90;;;;;;4937194;28;20410;-22
2023/10/29 06:11:29;;;;;;;3.08;0.60;;;15.60;99.90;;;;;;4943773;28;20073;-22
2023/10/29 06:13:57;;;;;;;3.03;0.60;;;15.60;99.90;;;;;;4929461;28;20129;-23
2023/10/29 06:16:23;;;;;;;2.35;0.60;;;15.50;99.90;;;;;;4950894;28;20022;-22
2023/10/29 06:18:49;;;;;;;4.03;0.90;;;15.60;99.90;;;;;;4945233;28;20038;-23
2023/10/29 06:21:18;;;;;;;2.87;0.70;;;14.70;99.90;;;;;;4934472;28;20081;-25
2023/10/29 06:23:43;;;;;;;3.90;0.88;;;15.50;99.90;;;;;;4954792;28;20038;-25
2023/10/29 06:26:09;;;;;;;4.75;0.90;;;15.50;99.90;;;;;;4938950;28;20041;-26
2023/10/29 06:28:35;;;;;;;2.67;0.60;;;15.50;99.90;;;;;;4953664;28;20031;-25
2023/10/29 06:31:01;;;;;;;2.72;0.90;;;15.50;99.90;;;;;;4910571;28;20466;-25
2023/10/29 06:33:26;;;;;;;4.17;0.80;;;15.50;99.90;;;;;;4955938;28;20043;-25
2023/10/29 06:35:52;;;;;;;2.13;0.65;;;15.50;99.90;;;;;;4948258;28;20027;-25
2023/10/29 06:38:18;;;;;;;3.73;1.20;;;15.50;99.90;;;;;;4939013;28;20153;-26
2023/10/29 06:40:43;;;;;;;3.47;0.90;;;15.40;99.90;;;;;;4952893;28;20027;-25
2023/10/29 06:43:09;;;;;;;2.23;0.60;;;15.40;99.90;;;;;;4932115;28;20255;-26
2023/10/29 06:45:35;;;;;;;1.77;0.60;;;15.40;99.90;;;;;;4931724;28;20046;-26
2023/10/29 06:48:01;;;;;;;2.87;0.80;;;15.40;99.90;;;;;;4939675;28;20031;-25
2023/10/29 06:50:26;;;;;;;3.17;0.77;;;15.40;99.90;;;;;;4951795;28;20113;-25
2023/10/29 06:52:52;;;;;;;2.53;0.90;;;15.30;99.90;;;;;;4934977;28;20035;-25
2023/10/29 06:55:18;;;;;;;3.35;1.08;;;15.30;99.90;;;;;;4947887;28;20023;-25
2023/10/29 06:57:43;;;;;;;4.10;0.73;;;15.30;99.90;;;;;;4939216;28;20075;-25
2023/10/29 07:00:10;;;;;;;4.00;0.82;;;15.30;99.90;;;;;;4941733;28;20168;-26
2023/10/29 07:02:36;;;;;;;6.40;1.07;;;15.30;99.90;;;;;;4933071;28;20362;-25
2023/10/29 07:05:02;;;;;;;2.65;0.90;;;15.30;99.90;;;;;;4936109;28;20165;-25
2023/10/29 07:07:29;;;;;;;2.88;0.75;;;15.30;99.90;;;;;;4944834;28;20035;-25
2023/10/29 07:09:56;;;;;;;2.47;0.67;;;15.30;99.90;;;;;;4941212;28;20468;-25
2023/10/29 07:12:22;;;;;;;2.63;0.63;;;15.20;99.90;;;;;;4938653;28;20476;-26
2023/10/29 07:14:48;;;;;;;5.97;0.88;;;15.20;99.90;;;;;;4951385;28;20134;-26
2023/10/29 07:17:14;;;;;;;3.90;0.70;;;15.30;99.90;;;;;;4930074;28;20023;-25
2023/10/29 07:19:40;;;;;;;3.07;0.70;;;15.20;99.90;;;;;;4939548;28;20022;-26
2023/10/29 07:22:06;;;;;;;3.58;1.25;;;15.30;99.90;;;;;;4949808;28;20382;-25
2023/10/29 07:24:34;;;;;;;2.93;0.80;;;15.30;99.90;;;;;;4926597;28;20214;-25
2023/10/29 07:27:01;;;;;;;4.72;0.80;;;15.30;99.90;;;;;;4927431;28;20038;-26
2023/10/29 07:29:27;;;;;;;3.63;0.73;;;15.40;99.90;;;;;;4952475;28;20474;-26
2023/10/29 07:31:52;;;;;;;3.00;0.80;;;15.50;99.90;;;;;;4917495;28;20679;-26
2023/10/29 07:34:18;;;;;;;2.93;0.77;;;15.50;99.90;;;;;;4944536;28;20035;-25
2023/10/29 07:36:44;;;;;;;4.10;0.80;;;15.60;99.90;;;;;;4925389;28;20515;-25
2023/10/29 07:39:10;;;;;;;2.83;0.70;;;15.70;99.90;;;;;;4945282;28;20039;-26
2023/10/29 07:41:36;;;;;;;3.08;0.75;;;15.70;99.90;;;;;;4933818;28;20027;-24
2023/10/29 07:44:02;;;;;;;1.95;0.70;;;15.70;99.90;;;;;;4946225;28;20408;-23
2023/10/29 07:46:28;;;;;;;3.90;0.70;;;15.70;99.90;;;;;;4955132;28;20034;-24
2023/10/29 07:48:54;;;;;;;2.55;0.73;;;17.00;99.90;;;;;;4930012;28;20150;-23
2023/10/29 07:51:20;;;;;;;3.80;0.85;;;15.70;99.90;;;;;;4937672;28;20047;-25
2023/10/29 07:53:46;;;;;;;2.00;1.00;;;15.70;99.90;;;;;;4944481;28;20313;-25
2023/10/29 07:56:16;;;;;;;2.20;0.73;;;15.70;99.90;;;;;;4933382;28;20043;-25
2023/10/29 07:58:42;;;;;;;3.85;0.82;;;15.70;99.90;;;;;;4936911;28;20039;-25
2023/10/29 08:01:16;;;;;;;3.10;0.85;;;15.70;99.90;;;;;;4936581;28;20745;-25
2023/10/29 08:03:45;;;;;;;5.20;1.20;;;15.80;99.90;;;;;;4928055;28;20054;-23
2023/10/29 08:06:13;;;;;;;3.58;0.90;;;15.80;99.90;;;;;;4954929;28;20494;-23
2023/10/29 08:08:39;;;;;;;2.92;0.98;;;15.90;99.90;;;;;;4950955;28;20071;-24
2023/10/29 08:11:04;;;;;;;2.90;0.70;;;15.90;99.90;;;;;;4949827;28;20031;-23
2023/10/29 08:13:30;;;;;;;2.93;0.77;;;15.90;99.90;;;;;;4937410;28;20042;-24
2023/10/29 08:15:58;;;;;;;3.80;0.80;;;15.90;99.90;;;;;;4940191;28;20270;-23
2023/10/29 08:18:24;;;;;;;4.85;1.15;;;16.20;99.90;;;;;;4952137;28;20027;-23
2023/10/29 08:20:50;;;;;;;3.63;0.93;;;16.00;99.90;;;;;;4900785;28;20082;-23
2023/10/29 08:23:15;;;;;;;4.90;0.80;;;16.00;99.90;;;;;;4952096;28;20035;-23
2023/10/29 08:25:41;;;;;;;2.50;0.67;;;16.00;99.90;;;;;;4950432;28;20496;-24
2023/10/29 08:28:11;;;;;;;3.65;0.60;;;16.00;99.90;;;;;;4928870;28;20420;-23
2023/10/29 08:30:37;;;;;;;4.13;0.90;;;16.00;99.90;;;;;;4955615;28;20097;-24
2023/10/29 08:33:02;;;;;;;2.37;0.70;;;16.10;99.90;;;;;;4949932;28;20126;-23
2023/10/29 08:35:28;;;;;;;4.97;0.80;;;16.10;99.90;;;;;;4917850;28;20023;-23
2023/10/29 08:37:55;;;;;;;3.77;0.80;;;15.80;99.90;;;;;;4935681;28;20126;-24
2023/10/29 08:40:20;;;;;;;4.13;0.80;;;16.20;99.90;;;;;;4952211;28;20747;-23
2023/10/29 08:42:46;;;;;;;3.30;0.77;;;16.20;99.90;;;;;;4933424;28;20234;-23
2023/10/29 08:45:15;;;;;;;7.03;0.87;;;16.30;99.90;;;;;;4942717;28;20030;-23
2023/10/29 08:47:40;;;;;;;3.00;0.70;;;16.40;99.90;;;;;;4950741;28;20038;-24
2023/10/29 08:50:08;;;;;;;2.70;0.70;;;16.40;99.90;;;;;;4928232;28;20035;-23
2023/10/29 08:52:34;;;;;;;3.92;0.82;;;16.40;99.90;;;;;;4923678;28;20034;-25
2023/10/29 08:55:00;;;;;;;3.30;0.80;;;16.50;99.90;;;;;;4946416;28;20593;-25
2023/10/29 08:57:26;;;;;;;4.70;0.80;;;16.50;99.90;;;;;;4948540;28;20026;-25
2023/10/29 08:59:52;;;;;;;4.40;0.73;;;16.50;99.90;;;;;;4931338;28;20970;-25
2023/10/29 09:02:17;;;;;;;3.90;0.90;;;16.60;99.90;;;;;;4951664;28;20819;-25
2023/10/29 09:04:43;;;;;;;4.60;0.93;;;16.70;99.90;;;;;;4940560;28;20230;-25
2023/10/29 09:07:09;;;;;;;3.10;0.70;;;17.00;99.90;;;;;;4931303;28;20042;-25
2023/10/29 09:09:37;;;;;;;2.78;0.77;;;17.30;99.90;;;;;;4941461;28;20085;-25
2023/10/29 09:12:04;;;;;;;3.43;0.90;;;17.60;99.90;;;;;;4965228;28;20066;-23
2023/10/29 09:14:29;;;;;;;1.50;0.50;;;17.80;99.90;;;;;;4936039;28;20035;-24
2023/10/29 09:16:55;;;;;;;2.97;0.60;;;17.90;99.90;;;;;;4942092;28;20502;-24
2023/10/29 09:19:21;;;;;;;1.47;0.60;;;18.00;99.90;;;;;;4953408;28;20031;-24
2023/10/29 09:21:47;;;;;;;3.60;0.70;;;18.00;99.90;;;;;;4955168;28;20253;-24
2023/10/29 09:24:15;;;;;;;4.43;0.88;;;18.00;99.90;;;;;;4934368;28;20122;-23
2023/10/29 09:26:41;;;;;;;3.88;0.68;;;18.00;99.90;;;;;;4927756;28;20571;-24
2023/10/29 09:29:08;;;;;;;2.87;0.87;;;18.00;99.90;;;;;;4957904;28;20031;-23
2023/10/29 09:31:33;;;;;;;2.45;0.60;;;17.90;99.90;;;;;;4941922;28;20049;-24
2023/10/29 09:34:00;;;;;;;3.90;0.70;;;17.90;99.90;;;;;;4947992;28;20505;-23
2023/10/29 09:36:27;;;;;;;2.42;0.70;;;17.80;99.90;;;;;;4950971;28;20026;-24
2023/10/29 09:38:52;;;;;;;2.47;0.83;;;17.70;99.90;;;;;;4941475;28;20026;-24
2023/10/29 09:41:18;;;;;;;3.72;0.80;;;17.60;99.90;;;;;;4939565;28;20240;-24
2023/10/29 09:43:44;;;;;;;2.75;0.95;;;17.60;99.90;;;;;;4929330;28;20283;-23
2023/10/29 09:46:11;;;;;;;4.17;0.60;;;17.60;99.90;;;;;;4917530;28;20058;-24
2023/10/29 09:48:38;;;;;;;2.83;0.93;;;17.50;99.90;;;;;;4940143;28;20124;-24
2023/10/29 09:51:05;;;;;;;6.43;1.02;;;17.40;99.90;;;;;;4938299;28;20113;-23
2023/10/29 09:53:33;;;;;;;2.85;0.80;;;17.40;99.90;;;;;;4960236;28;20045;-24
2023/10/29 09:55:59;;;;;;;2.13;0.77;;;17.30;99.90;;;;;;4941602;28;20118;-24
2023/10/29 09:58:27;;;;;;;3.27;0.70;;;17.30;99.90;;;;;;4932966;28;20683;-24
2023/10/29 10:00:53;;;;;;;1.65;0.60;;;17.30;99.90;;;;;;4940586;28;20027;-24
2023/10/29 10:03:19;;;;;;;3.38;0.80;;;17.30;99.90;;;;;;4937756;28;20468;-25
2023/10/29 10:05:46;;;;;;;3.33;0.80;;;17.30;99.90;;;;;;4948842;28;20027;-25
2023/10/29 10:08:12;;;;;;;3.00;0.90;;;17.40;99.90;;;;;;4946518;28;20082;-25
2023/10/29 10:10:46;;;;;;;4.25;0.80;;;17.50;99.90;;;;;;4926965;28;20129;-26
2023/10/29 10:13:14;;;;;;;4.78;1.00;;;17.60;99.90;;;;;;4938741;28;20034;-25
2023/10/29 10:15:41;;;;;;;3.38;0.77;;;17.60;99.90;;;;;;4939729;28;20034;-26
2023/10/29 10:18:06;;;;;;;2.20;0.80;;;17.60;99.90;;;;;;4939570;28;20116;-25
2023/10/29 10:20:34;;;;;;;2.67;0.80;;;17.70;99.90;;;;;;4941106;28;20026;-25
2023/10/29 10:23:07;;;;;;;3.05;0.80;;;17.70;99.90;;;;;;4951524;28;20034;-26
2023/10/29 10:25:33;;;;;;;4.80;0.98;;;17.60;99.90;;;;;;4921969;28;20039;-26
2023/10/29 10:28:00;;;;;;;2.57;0.80;;;17.60;99.90;;;;;;4947779;28;20038;-25
2023/10/29 10:30:31;;;;;;;4.00;0.80;;;17.60;99.90;;;;;;4940816;28;20613;-26
2023/10/29 10:33:19;;;;;;;1.90;0.70;;;17.50;99.90;;;;;;4942796;28;20030;-25
2023/10/29 10:35:51;;;;;;;2.95;0.80;;;17.50;99.90;;;;;;4945317;28;20501;-25
2023/10/29 10:38:22;;;;;;;2.50;0.70;;;17.40;99.90;;;;;;4951887;28;20035;-26
2023/10/29 10:40:58;;;;;;;2.40;1.00;;;17.40;99.90;;;;;;4949244;28;20057;-25
2023/10/29 10:43:26;;;;;;;4.07;0.98;;;17.30;99.90;;;;;;4943872;28;20527;-26
2023/10/29 10:45:54;;;;;;;3.55;0.90;;;17.30;99.90;;;;;;4950075;28;20514;-25
2023/10/29 10:48:20;;;;;;;4.22;1.10;;;17.20;99.90;;;;;;4951355;28;20803;-26
2023/10/29 10:50:47;;;;;;;3.00;1.20;;;17.20;99.90;;;;;;4945143;28;20116;-25
2023/10/29 10:53:16;;;;;;;2.22;0.73;;;17.10;99.90;;;;;;4954395;28;20027;-25
2023/10/29 10:55:44;;;;;;;2.80;0.80;;;17.20;99.90;;;;;;4960700;28;20584;-25
2023/10/29 10:58:15;;;;;;;2.33;0.70;;;17.10;99.90;;;;;;4933727;28;20201;-26
2023/10/29 11:00:41;;;;;;;3.05;0.90;;;17.10;99.90;;;;;;4941145;28;20027;-26
2023/10/29 11:03:08;;;;;;;3.93;0.80;;;17.10;99.90;;;;;;4941899;28;20271;-26
2023/10/29 11:05:34;;;;;;;3.08;0.77;;;17.20;99.90;;;;;;4950968;28;20027;-26
2023/10/29 11:08:01;;;;;;;4.72;0.90;;;17.20;99.90;;;;;;4938647;28;20374;-26
2023/10/29 11:10:28;;;;;;;2.65;0.80;;;17.30;99.90;;;;;;4943570;28;20221;-25
2023/10/29 11:12:54;;;;;;;2.67;0.70;;;17.40;99.90;;;;;;4935130;28;20031;-26
2023/10/29 11:15:23;;;;;;;2.47;0.90;;;17.40;99.90;;;;;;4944079;28;20031;-25
2023/10/29 11:17:59;;;;;;;2.03;0.60;;;17.50;99.90;;;;;;4941031;28;20792;-26
2023/10/29 11:23:12;;;;;;;2.63;0.90;;;18.10;99.90;;;;;;4945072;28;20427;-25
2023/10/29 11:25:39;;;;;;;2.85;0.85;;;18.50;99.90;;;;;;4945376;28;20042;-26
2023/10/29 11:28:05;;;;;;;2.73;0.87;;;19.00;99.90;;;;;;4932841;28;20568;-26
2023/10/29 11:30:31;;;;;;;3.15;0.90;;;19.40;99.90;;;;;;4938317;28;20363;-25
2023/10/29 11:33:22;;;;;;;4.03;1.10;;;19.70;99.90;;;;;;4939567;28;20621;-25
2023/10/29 11:35:48;;;;;;;3.17;0.80;;;19.90;99.90;;;;;;4940438;28;20345;-25
2023/10/29 11:38:37;;;;;;;2.73;0.90;;;20.00;99.90;;;;;;4945149;28;20451;-26
2023/10/29 11:41:34;;;;;;;3.85;1.00;;;20.00;99.90;;;;;;4946750;28;20055;-25
2023/10/29 11:44:21;;;;;;;2.15;0.90;;;19.90;99.90;;;;;;4928125;28;20550;-26
2023/10/29 11:46:59;;;;;;;2.50;1.00;;;19.80;99.90;;;;;;4927937;28;20310;-26
2023/10/29 11:49:26;;;;;;;2.83;0.97;;;19.70;99.90;;;;;;4952800;28;20035;-26
2023/10/29 11:52:02;;;;;;;3.03;0.80;;;19.50;99.90;;;;;;4930168;28;20039;-26
2023/10/29 11:54:29;;;;;;;3.28;0.73;;;19.30;99.90;;;;;;4958174;28;20130;-26
2023/10/29 11:56:59;;;;;;;1.92;0.70;;;19.10;99.90;;;;;;4927425;28;20754;-26
2023/10/29 11:59:26;;;;;;;2.78;0.70;;;19.00;99.90;;;;;;4913924;28;20047;-26
2023/10/29 12:01:53;;;;;;;3.27;0.93;;;18.90;99.90;;;;;;4921851;28;23327;-26
2023/10/29 12:04:19;;;;;;;2.70;0.70;;;18.80;99.90;;;;;;4933287;28;20093;-26
2023/10/29 12:06:46;;;;;;;2.65;0.80;;;18.70;99.90;;;;;;4941170;28;20107;-25
2023/10/29 12:09:23;;;;;;;3.40;0.80;;;18.60;99.90;;;;;;4934362;28;20035;-25
2023/10/29 12:11:53;;;;;;;1.83;0.60;;;18.50;99.90;;;;;;4954910;28;20051;-25
2023/10/29 12:14:43;;;;;;;1.07;0.50;;;18.50;99.90;;;;;;4928336;28;20056;-25
2023/10/29 12:17:10;;;;;;;1.58;0.57;;;18.50;99.90;;;;;;4945948;28;20732;-26
2023/10/29 12:19:36;;;;;;;2.67;0.70;;;18.40;99.90;;;;;;4959117;23;20090;-26
2023/10/29 12:22:12;;;;;;;2.20;0.70;;;18.40;99.90;;;;;;4930666;28;20767;-25
2023/10/29 12:24:38;;;;;;;3.13;0.70;;;18.40;99.90;;;;;;4933454;28;20525;-24
2023/10/29 12:27:05;;;;;;;1.00;0.63;;;18.40;99.90;;;;;;4957754;28;20032;-24
2023/10/29 12:29:30;;;;;;;2.33;0.50;;;18.40;99.90;;;;;;4928188;28;20049;-23
2023/10/29 12:31:56;;;;;;;1.23;0.60;;;18.50;99.90;;;;;;4929201;28;20038;-24
2023/10/29 12:34:22;;;;;;;1.90;0.50;;;18.50;99.90;;;;;;4895392;28;20039;-25
2023/10/29 12:36:53;;;;;;;2.92;0.70;;;18.50;99.90;;;;;;4929115;28;20166;-24
2023/10/29 12:39:19;;;;;;;3.63;0.70;;;18.50;99.90;;;;;;4930529;28;20079;-24
2023/10/29 12:41:52;;;;;;;2.65;0.68;;;18.50;99.90;;;;;;4943245;28;20584;-24
2023/10/29 12:44:18;;;;;;;3.13;0.70;;;18.50;99.90;;;;;;4927706;28;20070;-24
2023/10/29 12:46:50;;;;;;;3.35;1.05;;;18.40;99.90;;;;;;4934935;28;20166;-20
2023/10/29 12:49:25;;;;;;;2.83;1.10;;;18.30;99.90;;;;;;4902667;28;20041;-20